Time;durP1;ratioP1;P1;durP2;ratioP2;P2;SDS_P1;SDS_P2;PMS_P1;PMS_P2;Temp;Humidity;BMP_temperature;BMP_pressure;BME280_temperature;BME280_humidity;BME280_pressure;Samples;Min_cycle;Max_cycle;Signal;HPM_P1;HPM_P2
2023/06/08 00:00:14;;;;;;;24.90;17.27;;;;;;;12.08;100.00;101986.66;5033702;28;20433;-44
2023/06/08 00:02:42;;;;;;;25.63;17.93;;;;;;;12.08;100.00;101992.00;5032446;28;20495;-44
2023/06/08 00:05:13;;;;;;;24.83;17.23;;;;;;;12.10;100.00;101980.13;5033284;28;20849;-44
2023/06/08 00:07:42;;;;;;;23.13;16.67;;;;;;;12.06;100.00;101976.16;5033283;28;20514;-43
2023/06/08 00:10:10;;;;;;;22.77;17.87;;;;;;;12.10;100.00;101980.13;5033442;28;20490;-45
2023/06/08 00:12:38;;;;;;;25.73;16.53;;;;;;;12.10;100.00;101974.78;5032571;28;21054;-43
2023/06/08 00:15:07;;;;;;;24.83;18.87;;;;;;;12.07;100.00;101977.81;5033357;28;20436;-45
2023/06/08 00:17:35;;;;;;;27.40;18.73;;;;;;;12.10;100.00;101985.47;5033037;28;20464;-43
2023/06/08 00:20:08;;;;;;;28.50;19.00;;;;;;;11.89;100.00;101979.91;5033042;28;20440;-44
2023/06/08 00:22:37;;;;;;;25.97;19.20;;;;;;;11.87;100.00;101978.44;5032539;28;20543;-44
2023/06/08 00:25:08;;;;;;;25.37;17.00;;;;;;;11.70;100.00;101971.50;5033123;28;20582;-44
2023/06/08 00:27:36;;;;;;;31.50;19.43;;;;;;;11.48;100.00;101973.06;5029204;28;20869;-46
2023/06/08 00:30:05;;;;;;;27.27;19.40;;;;;;;11.36;100.00;101972.59;5032967;28;20432;-44
2023/06/08 00:32:33;;;;;;;27.77;18.77;;;;;;;11.40;100.00;101973.09;5032106;28;20459;-45
2023/06/08 00:35:01;;;;;;;20.63;18.30;;;;;;;11.30;100.00;101975.94;5033071;28;20435;-44
2023/06/08 00:37:28;;;;;;;24.13;17.17;;;;;;;11.30;100.00;101973.28;5032856;28;20507;-43
2023/06/08 00:39:56;;;;;;;25.33;20.23;;;;;;;11.30;100.00;101969.78;5032849;28;20538;-43
2023/06/08 00:42:25;;;;;;;27.53;18.87;;;;;;;11.24;100.00;101981.97;5032136;28;20463;-44
2023/06/08 00:44:53;;;;;;;28.90;21.50;;;;;;;11.22;100.00;101973.31;5032533;28;20973;-44
2023/06/08 00:47:21;;;;;;;21.63;18.90;;;;;;;11.16;100.00;101968.66;5032545;28;20972;-44
2023/06/08 00:49:50;;;;;;;32.33;18.67;;;;;;;11.01;100.00;101968.53;5032795;28;20435;-43
2023/06/08 00:52:21;;;;;;;30.00;21.43;;;;;;;11.09;100.00;101983.66;5031696;28;21001;-43
2023/06/08 00:54:49;;;;;;;28.10;20.47;;;;;;;11.00;100.00;101987.34;5032603;28;20960;-46
2023/06/08 00:57:19;;;;;;;25.43;19.03;;;;;;;10.97;100.00;101991.19;5036004;28;20452;-49
2023/06/08 00:59:49;;;;;;;26.60;19.40;;;;;;;10.95;100.00;101985.22;5036695;28;20437;-45
2023/06/08 01:02:18;;;;;;;30.23;20.60;;;;;;;11.01;100.00;101981.88;5035630;28;20424;-46
2023/06/08 01:04:45;;;;;;;26.23;21.30;;;;;;;11.13;100.00;101987.69;5035513;28;20429;-45
2023/06/08 01:07:25;;;;;;;25.90;19.70;;;;;;;11.22;100.00;101983.16;5036592;28;20510;-45
2023/06/08 01:10:00;;;;;;;31.13;21.97;;;;;;;11.31;100.00;101976.78;5036385;28;20432;-45
2023/06/08 01:12:34;;;;;;;33.13;20.00;;;;;;;11.36;100.00;101990.44;5036030;28;20579;-44
2023/06/08 01:15:13;;;;;;;21.30;19.00;;;;;;;11.41;100.00;101996.13;5036717;28;20420;-46
2023/06/08 01:17:45;;;;;;;39.00;19.83;;;;;;;11.41;100.00;101988.13;5036348;28;20460;-46
2023/06/08 01:20:24;;;;;;;28.83;20.33;;;;;;;11.37;100.00;101987.63;5036532;28;20607;-45
2023/06/08 01:22:59;;;;;;;27.80;19.77;;;;;;;11.23;100.00;101996.31;5035875;28;20463;-50
2023/06/08 01:25:32;;;;;;;31.57;20.77;;;;;;;11.32;100.00;101994.50;5036123;28;20502;-46
2023/06/08 01:28:12;;;;;;;31.73;21.20;;;;;;;11.40;100.00;101997.97;5032140;28;20475;-44
2023/06/08 01:30:41;;;;;;;26.37;20.93;;;;;;;11.47;100.00;101987.41;5023746;28;20420;-46
2023/06/08 01:33:12;;;;;;;30.30;20.47;;;;;;;11.50;100.00;101990.56;5034919;28;20459;-44
2023/06/08 01:35:40;;;;;;;21.30;19.00;;;;;;;11.53;100.00;101986.72;5035784;28;20447;-49
2023/06/08 01:38:16;;;;;;;26.67;20.90;;;;;;;11.55;100.00;101980.22;5036226;28;20543;-45
2023/06/08 01:40:49;;;;;;;21.20;18.90;;;;;;;11.59;100.00;101981.53;5035974;28;20424;-45
2023/06/08 01:43:19;;;;;;;25.80;20.00;;;;;;;11.68;100.00;101981.50;5035454;28;20483;-47
2023/06/08 01:45:51;;;;;;;23.53;20.50;;;;;;;11.70;100.00;101979.53;5035934;28;20486;-48
2023/06/08 01:48:22;;;;;;;25.90;19.40;;;;;;;11.74;100.00;101978.19;5036005;28;21056;-48
2023/06/08 01:50:51;;;;;;;29.47;20.67;;;;;;;11.73;100.00;101982.69;5036416;28;20531;-47
2023/06/08 01:53:19;;;;;;;25.30;19.83;;;;;;;11.71;100.00;101978.53;5035459;28;20470;-48
2023/06/08 01:55:50;;;;;;;30.40;21.97;;;;;;;11.66;100.00;101974.50;5035569;28;20432;-45
2023/06/08 01:58:18;;;;;;;27.53;19.83;;;;;;;11.71;100.00;101975.84;5035923;28;20460;-45
2023/06/08 02:00:46;;;;;;;24.73;20.23;;;;;;;11.75;100.00;101977.16;5035578;28;20432;-48
2023/06/08 02:03:14;;;;;;;34.33;20.27;;;;;;;11.73;100.00;101979.16;5035119;28;20468;-45
2023/06/08 02:05:42;;;;;;;27.47;18.83;;;;;;;11.74;100.00;101983.53;5035242;28;20838;-46
2023/06/08 02:08:10;;;;;;;32.60;17.80;;;;;;;11.65;100.00;101980.00;5035504;28;21036;-46
2023/06/08 02:10:37;;;;;;;29.27;19.00;;;;;;;11.39;100.00;101976.75;5035476;28;20886;-47
2023/06/08 02:13:07;;;;;;;25.40;18.67;;;;;;;11.24;100.00;101971.28;5035043;28;20476;-45
2023/06/08 02:15:34;;;;;;;25.73;20.60;;;;;;;11.26;100.00;101984.50;5036203;28;20440;-47
2023/06/08 02:18:03;;;;;;;27.40;19.83;;;;;;;11.07;100.00;101977.69;5039639;28;20553;-47
2023/06/08 02:20:33;;;;;;;30.53;20.10;;;;;;;11.09;100.00;101976.50;5039465;28;20501;-45
2023/06/08 02:23:01;;;;;;;30.87;19.73;;;;;;;11.02;100.00;101980.03;5039053;28;20490;-45
2023/06/08 02:25:28;;;;;;;23.10;20.10;;;;;;;10.97;100.00;101977.00;5039916;28;20942;-46
2023/06/08 02:27:57;;;;;;;31.07;20.20;;;;;;;10.83;100.00;101981.22;5035390;28;20989;-45
2023/06/08 02:30:26;;;;;;;27.23;20.97;;;;;;;10.87;100.00;101977.19;5039312;28;20432;-47
2023/06/08 02:32:54;;;;;;;28.47;22.33;;;;;;;10.85;100.00;101981.03;5038753;28;20459;-45
2023/06/08 02:35:22;;;;;;;30.10;20.33;;;;;;;10.91;100.00;101981.19;5039349;28;20432;-47
2023/06/08 02:37:50;;;;;;;26.50;20.20;;;;;;;11.00;100.00;101979.34;5039195;28;20460;-47
2023/06/08 02:40:18;;;;;;;24.97;19.87;;;;;;;11.04;100.00;101986.03;5038940;28;20464;-47
2023/06/08 02:42:45;;;;;;;28.03;19.83;;;;;;;10.95;100.00;101981.69;5038744;28;20468;-48
2023/06/08 02:45:13;;;;;;;24.70;19.80;;;;;;;10.87;100.00;101987.88;5039291;28;20440;-45
2023/06/08 02:47:42;;;;;;;24.90;20.00;;;;;;;10.71;100.00;101981.72;5039322;28;20529;-44
2023/06/08 02:50:10;;;;;;;30.33;20.30;;;;;;;10.81;100.00;101979.72;5039100;28;20462;-46
2023/06/08 02:52:38;;;;;;;24.60;20.30;;;;;;;10.85;100.00;101973.88;5038432;28;20492;-47
2023/06/08 02:55:08;;;;;;;29.47;20.40;;;;;;;10.88;100.00;101983.38;5039577;28;20926;-47
2023/06/08 02:57:36;;;;;;;24.83;19.40;;;;;;;10.96;100.00;101991.38;5038455;28;20478;-46
2023/06/08 03:00:07;;;;;;;24.17;19.03;;;;;;;11.01;100.00;101983.69;5039100;28;20455;-45
2023/06/08 03:02:35;;;;;;;20.13;18.03;;;;;;;11.05;100.00;101983.16;5038446;28;20530;-45
2023/06/08 03:05:06;;;;;;;33.07;20.47;;;;;;;11.05;100.00;101971.69;5039349;28;20445;-46
2023/06/08 03:07:36;;;;;;;23.87;20.60;;;;;;;10.87;100.00;101977.19;5038911;28;20475;-45
2023/06/08 03:10:05;;;;;;;35.90;21.13;;;;;;;10.79;100.00;101969.19;5038603;28;21104;-46
2023/06/08 03:12:32;;;;;;;28.50;22.20;;;;;;;10.82;100.00;101971.53;5038331;28;20456;-45
2023/06/08 03:15:00;;;;;;;30.17;21.47;;;;;;;10.89;100.00;101977.03;5038566;28;20467;-51
2023/06/08 03:17:28;;;;;;;29.30;21.77;;;;;;;10.63;100.00;101979.91;5038734;28;20511;-46
2023/06/08 03:19:57;;;;;;;33.80;23.83;;;;;;;10.52;100.00;101975.72;5038240;28;20636;-44
2023/06/08 03:22:27;;;;;;;32.40;24.13;;;;;;;10.60;100.00;101971.41;5037914;28;20460;-45
2023/06/08 03:24:58;;;;;;;33.43;22.53;;;;;;;10.67;100.00;101975.03;5038347;28;20436;-45
2023/06/08 03:27:26;;;;;;;27.07;23.43;;;;;;;10.80;100.00;101972.72;5033430;28;20471;-46
2023/06/08 03:29:53;;;;;;;24.30;20.13;;;;;;;10.90;100.00;101981.38;5038329;28;20941;-47
2023/06/08 03:32:21;;;;;;;27.17;21.27;;;;;;;10.93;100.00;101975.72;5038477;28;20431;-45
2023/06/08 03:34:50;;;;;;;23.70;19.63;;;;;;;10.97;100.00;101974.34;5038253;28;20432;-48
2023/06/08 03:37:18;;;;;;;23.67;18.70;;;;;;;11.05;100.00;101964.50;5038098;28;20502;-47
2023/06/08 03:39:47;;;;;;;36.07;23.50;;;;;;;11.13;100.00;101966.31;5037588;28;20462;-47
2023/06/08 03:42:14;;;;;;;26.83;19.83;;;;;;;11.20;100.00;101969.97;4963064;28;20493;-49
2023/06/08 03:44:42;;;;;;;25.30;21.50;;;;;;;11.25;100.00;101970.31;4994703;28;20470;-48
2023/06/08 03:47:12;;;;;;;24.63;21.40;;;;;;;11.28;100.00;101974.47;4994810;28;20552;-46
2023/06/08 03:49:40;;;;;;;29.80;21.30;;;;;;;11.30;100.00;101967.94;4994563;28;20808;-47
2023/06/08 03:52:07;;;;;;;27.13;21.77;;;;;;;11.34;100.00;101969.28;4993807;28;20516;-44
2023/06/08 03:54:35;;;;;;;25.63;20.20;;;;;;;11.37;100.00;101962.75;4994360;28;20861;-45
2023/06/08 03:57:05;;;;;;;26.93;20.63;;;;;;;11.45;100.00;101966.22;4994127;28;20465;-48
2023/06/08 03:59:33;;;;;;;26.37;20.73;;;;;;;11.51;100.00;101968.19;4994624;28;20819;-44
2023/06/08 04:02:01;;;;;;;24.93;20.60;;;;;;;11.60;100.00;101956.47;4989554;28;20469;-46
2023/06/08 04:04:29;;;;;;;23.70;19.80;;;;;;;11.66;100.00;101963.81;4994418;28;20880;-48
2023/06/08 04:07:00;;;;;;;29.67;21.43;;;;;;;11.68;100.00;101968.94;4994190;28;20478;-47
2023/06/08 04:09:28;;;;;;;31.37;21.13;;;;;;;11.70;100.00;101967.00;4994368;28;20426;-47
2023/06/08 04:11:56;;;;;;;29.70;20.43;;;;;;;11.72;100.00;101964.97;4993393;28;23238;-46
2023/06/08 04:14:25;;;;;;;32.90;21.47;;;;;;;11.76;100.00;101965.47;4994156;28;20438;-45
2023/06/08 04:16:53;;;;;;;27.97;18.10;;;;;;;11.78;100.00;101958.94;4994021;28;20509;-44
2023/06/08 04:19:21;;;;;;;25.07;19.30;;;;;;;11.76;100.00;101962.78;4993995;28;20434;-44
2023/06/08 04:21:49;;;;;;;26.63;19.27;;;;;;;11.82;100.00;101962.09;4993616;28;20797;-45
2023/06/08 04:24:17;;;;;;;29.47;19.53;;;;;;;11.82;100.00;101959.41;4993970;28;20799;-44
2023/06/08 04:26:46;;;;;;;21.73;18.60;;;;;;;11.89;100.00;101955.00;4995567;28;20912;-48
2023/06/08 04:29:14;;;;;;;23.50;18.80;;;;;;;11.95;100.00;101962.34;5031366;28;20490;-44
2023/06/08 04:31:44;;;;;;;24.47;19.33;;;;;;;11.91;100.00;101956.53;5030182;28;20432;-45
2023/06/08 04:34:12;;;;;;;26.23;16.77;;;;;;;11.98;100.00;101960.16;5032972;28;20467;-44
2023/06/08 04:36:42;;;;;;;21.17;17.80;;;;;;;12.08;100.00;101960.75;5032821;28;20999;-49
2023/06/08 04:39:10;;;;;;;22.67;18.90;;;;;;;12.06;100.00;101951.25;5032987;28;20464;-45
2023/06/08 04:41:38;;;;;;;20.73;18.07;;;;;;;11.99;100.00;101956.47;5032803;28;20420;-48
2023/06/08 04:44:08;;;;;;;27.93;18.57;;;;;;;12.02;100.00;101957.97;5032300;28;20456;-44
2023/06/08 04:46:37;;;;;;;23.80;18.40;;;;;;;11.88;100.00;101959.56;5032497;28;20450;-46
2023/06/08 04:49:07;;;;;;;22.87;18.60;;;;;;;11.64;100.00;101962.31;5032743;28;20467;-47
2023/06/08 04:51:39;;;;;;;20.53;17.93;;;;;;;11.56;100.00;101959.66;5032555;28;20490;-44
2023/06/08 04:54:13;;;;;;;22.00;18.53;;;;;;;11.71;100.00;101952.59;5031992;28;20784;-46
2023/06/08 04:56:41;;;;;;;19.93;17.83;;;;;;;11.79;100.00;101949.06;5032506;28;20432;-44
2023/06/08 04:59:09;;;;;;;17.10;15.33;;;;;;;11.90;100.00;101946.00;5032612;28;20433;-44
2023/06/08 05:01:37;;;;;;;19.17;17.27;;;;;;;11.95;100.00;101944.47;5032298;28;21065;-44
2023/06/08 05:04:07;;;;;;;17.40;15.50;;;;;;;11.85;100.00;101951.06;5032137;28;20467;-46
2023/06/08 05:06:37;;;;;;;17.43;15.67;;;;;;;11.62;100.00;101948.28;5032570;28;20437;-44
2023/06/08 05:09:05;;;;;;;21.80;17.30;;;;;;;11.42;100.00;101952.38;5032446;28;20468;-45
2023/06/08 05:11:33;;;;;;;19.00;16.60;;;;;;;11.49;100.00;101950.69;5032299;28;20432;-45
2023/06/08 05:14:00;;;;;;;19.47;16.77;;;;;;;11.45;100.00;101958.22;5031752;28;20468;-44
2023/06/08 05:16:28;;;;;;;23.90;16.43;;;;;;;11.29;100.00;101960.91;5032497;28;21016;-45
2023/06/08 05:18:56;;;;;;;22.00;15.20;;;;;;;11.20;100.00;101961.13;5032369;28;20543;-44
2023/06/08 05:21:25;;;;;;;20.40;17.77;;;;;;;11.14;100.00;101956.47;5032173;28;20897;-43
2023/06/08 05:23:53;;;;;;;22.17;17.00;;;;;;;11.26;100.00;101955.94;5031885;28;20841;-45
2023/06/08 05:26:21;;;;;;;19.70;17.00;;;;;;;11.23;100.00;101963.47;5032118;28;20486;-44
2023/06/08 05:28:48;;;;;;;19.10;16.07;;;;;;;11.27;100.00;101965.63;5028045;28;20538;-47
2023/06/08 05:31:16;;;;;;;22.50;19.17;;;;;;;11.43;100.00;101965.56;5032137;28;20516;-44
2023/06/08 05:33:44;;;;;;;20.57;18.13;;;;;;;11.62;100.00;101949.13;5031509;28;20907;-45
2023/06/08 05:36:13;;;;;;;26.77;17.57;;;;;;;11.83;100.00;101953.03;5032093;28;20942;-48
2023/06/08 05:38:43;;;;;;;23.20;17.67;;;;;;;12.08;100.00;101947.41;5031805;28;20460;-44
2023/06/08 05:41:11;;;;;;;18.90;16.40;;;;;;;12.28;100.00;101939.72;5031808;28;20478;-44
2023/06/08 05:43:39;;;;;;;25.57;18.17;;;;;;;12.29;100.00;101940.56;5031461;28;20464;-45
2023/06/08 05:46:06;;;;;;;27.43;19.57;;;;;;;12.07;100.00;101948.41;5031898;28;20462;-45
2023/06/08 05:48:34;;;;;;;18.33;16.43;;;;;;;12.10;100.00;101942.69;5031997;28;20476;-45
2023/06/08 05:51:02;;;;;;;22.03;19.00;;;;;;;12.22;100.00;101945.78;5031494;28;20934;-44
2023/06/08 05:53:30;;;;;;;30.83;19.47;;;;;;;12.26;100.00;101939.09;5031176;28;20467;-45
2023/06/08 05:55:59;;;;;;;23.43;18.93;;;;;;;12.41;100.00;101942.66;5032103;28;20563;-45
2023/06/08 05:58:27;;;;;;;21.80;19.03;;;;;;;12.31;100.00;101950.06;5031949;28;20448;-44
2023/06/08 06:01:15;;;;;;;22.60;18.17;;;;;;;12.15;100.00;101953.72;5031614;28;20432;-45
2023/06/08 06:03:43;;;;;;;23.03;18.40;;;;;;;12.30;100.00;101948.44;5028731;28;20467;-48
2023/06/08 06:06:11;;;;;;;25.10;18.50;;;;;;;12.40;100.00;101948.16;5031655;28;20425;-45
2023/06/08 06:08:39;;;;;;;21.27;18.10;;;;;;;12.50;100.00;101957.63;5031424;28;20476;-44
2023/06/08 06:11:12;;;;;;;22.70;19.37;;;;;;;12.59;100.00;101956.53;5031646;28;20929;-44
2023/06/08 06:13:40;;;;;;;22.80;19.67;;;;;;;12.64;100.00;101951.47;5030921;28;20464;-46
2023/06/08 06:16:08;;;;;;;29.93;18.33;;;;;;;12.78;100.00;101952.53;5031430;28;20432;-45
2023/06/08 06:18:35;;;;;;;19.83;17.73;;;;;;;12.56;100.00;101959.59;5031589;28;20506;-44
2023/06/08 06:21:04;;;;;;;22.20;19.10;;;;;;;12.71;100.00;101960.47;5031891;28;20515;-47
2023/06/08 06:23:32;;;;;;;22.50;18.93;;;;;;;12.90;100.00;101951.09;5030931;28;20463;-44
2023/06/08 06:26:00;;;;;;;23.97;19.47;;;;;;;13.04;100.00;101957.47;5031489;28;20440;-45
2023/06/08 06:28:29;;;;;;;28.57;19.80;;;;;;;13.20;100.00;101955.47;5031447;28;20508;-49
2023/06/08 06:30:57;;;;;;;28.23;19.10;;;;;;;13.41;100.00;101959.28;5031315;28;20433;-46
2023/06/08 06:33:24;;;;;;;29.13;21.23;;;;;;;13.50;100.00;101958.16;5030773;28;20539;-45
2023/06/08 06:35:53;;;;;;;28.77;21.10;;;;;;;13.62;100.00;101957.47;5031554;28;20439;-45
2023/06/08 06:38:21;;;;;;;25.00;20.57;;;;;;;13.76;100.00;101951.28;5031455;28;20888;-44
2023/06/08 06:40:52;;;;;;;21.77;18.87;;;;;;;13.78;100.00;101949.22;5031446;28;20842;-44
2023/06/08 06:43:21;;;;;;;21.23;19.00;;;;;;;13.86;100.00;101954.47;5030493;28;20518;-44
2023/06/08 06:45:50;;;;;;;28.90;20.80;;;;;;;13.80;100.00;101949.88;5031169;28;21003;-44
2023/06/08 06:48:19;;;;;;;24.33;18.83;;;;;;;13.77;100.00;101944.88;5031417;28;20483;-44
2023/06/08 06:50:52;;;;;;;20.63;18.63;;;;;;;13.72;100.00;101951.81;5031596;28;20428;-44
2023/06/08 06:53:19;;;;;;;17.57;15.67;;;;;;;13.99;100.00;101944.91;5030640;28;21109;-45
2023/06/08 06:55:48;;;;;;;21.80;17.73;;;;;;;14.05;100.00;101952.22;5031277;28;20467;-44
2023/06/08 06:58:16;;;;;;;24.63;18.40;;;;;;;14.04;100.00;101956.72;5031493;28;20463;-44
2023/06/08 07:00:44;;;;;;;22.47;17.17;;;;;;;14.27;100.00;101949.38;5031456;28;20436;-45
2023/06/08 07:03:14;;;;;;;24.47;17.83;;;;;;;14.53;100.00;101956.84;5031525;28;20830;-48
2023/06/08 07:05:42;;;;;;;19.17;17.17;;;;;;;14.61;100.00;101956.72;5034742;28;20439;-45
2023/06/08 07:08:10;;;;;;;21.50;16.37;;;;;;;14.77;100.00;101952.94;5034736;28;20534;-46
2023/06/08 07:10:37;;;;;;;17.10;15.10;;;;;;;14.79;100.00;101950.88;5034735;28;20490;-49
2023/06/08 07:13:05;;;;;;;20.13;17.97;;;;;;;14.43;100.00;101953.66;5034081;28;20551;-45
2023/06/08 07:15:33;;;;;;;23.03;16.20;;;;;;;14.51;100.00;101958.91;5034893;28;20463;-50
2023/06/08 07:18:01;;;;;;;20.13;18.00;;;;;;;14.63;100.00;101962.75;5034488;28;20467;-45
2023/06/08 07:20:30;;;;;;;19.53;15.73;;;;;;;14.84;100.00;101957.31;5034808;28;20460;-50
2023/06/08 07:22:58;;;;;;;21.93;16.07;;;;;;;15.16;100.00;101960.44;5033694;28;21033;-45
2023/06/08 07:25:46;;;;;;;21.10;15.50;;;;;;;15.55;100.00;101957.19;5034843;28;20439;-47
2023/06/08 07:28:34;;;;;;;21.83;16.27;;;;;;;15.90;100.00;101956.91;5030204;28;20468;-50
2023/06/08 07:31:03;;;;;;;22.60;15.50;;;;;;;16.14;100.00;101946.63;5033919;28;20432;-47
2023/06/08 07:33:31;;;;;;;17.37;15.13;;;;;;;16.32;100.00;101949.53;5033620;28;20488;-46
2023/06/08 07:36:00;;;;;;;24.67;14.07;;;;;;;16.58;100.00;101945.03;5034456;28;20459;-45
2023/06/08 07:38:28;;;;;;;24.67;15.50;;;;;;;16.75;100.00;101944.63;5034594;28;20460;-45
2023/06/08 07:40:55;;;;;;;18.33;16.23;;;;;;;16.68;100.00;101935.72;5034609;28;20526;-44
2023/06/08 07:43:23;;;;;;;20.00;15.17;;;;;;;16.83;100.00;101939.03;5033488;28;20460;-44
2023/06/08 07:45:51;;;;;;;23.83;14.87;;;;;;;16.69;100.00;101946.31;5034177;28;20622;-44
2023/06/08 07:48:19;;;;;;;16.87;12.90;;;;;;;17.31;100.00;101943.09;5033914;28;20517;-43
2023/06/08 07:50:47;;;;;;;20.13;13.40;;;;;;;17.73;100.00;101941.72;5034354;28;20435;-43
2023/06/08 07:53:16;;;;;;;16.10;12.13;;;;;;;18.38;100.00;101945.91;5033739;28;20472;-42
2023/06/08 07:55:44;;;;;;;13.50;12.10;;;;;;;19.00;100.00;101931.47;5034088;28;20482;-43
2023/06/08 07:58:12;;;;;;;15.33;12.80;;;;;;;19.61;100.00;101934.16;5034069;28;20582;-43
2023/06/08 08:00:40;;;;;;;13.77;12.37;;;;;;;20.11;100.00;101937.44;5033975;28;20848;-44
2023/06/08 08:03:08;;;;;;;18.67;12.93;;;;;;;20.81;100.00;101935.72;5032831;28;21050;-43
2023/06/08 08:05:36;;;;;;;17.43;13.07;;;;;;;21.31;98.42;101929.81;5033829;28;20431;-43
2023/06/08 08:08:04;;;;;;;17.87;13.67;;;;;;;21.80;89.61;101933.81;5033472;28;20459;-47
2023/06/08 08:10:33;;;;;;;22.23;13.07;;;;;;;22.20;91.20;101931.88;5033282;28;21066;-47
2023/06/08 08:13:01;;;;;;;18.97;13.67;;;;;;;22.20;85.92;101934.56;5032612;28;20459;-46
2023/06/08 08:15:29;;;;;;;19.60;12.37;;;;;;;22.13;74.02;101933.94;5033308;28;20459;-48
2023/06/08 08:17:56;;;;;;;12.33;10.40;;;;;;;22.08;74.08;101941.13;5033450;28;20529;-46
2023/06/08 08:20:25;;;;;;;17.60;12.17;;;;;;;21.58;69.59;101935.53;5033603;28;20845;-45
2023/06/08 08:22:52;;;;;;;15.80;12.57;;;;;;;21.17;82.92;101940.09;5032771;28;20495;-46
2023/06/08 08:25:21;;;;;;;14.50;12.43;;;;;;;20.54;79.71;101934.50;5033235;28;20801;-46
2023/06/08 08:27:50;;;;;;;18.10;12.37;;;;;;;20.58;82.95;101938.38;5029056;28;20514;-45
2023/06/08 08:30:18;;;;;;;17.63;12.90;;;;;;;20.00;82.36;101931.97;5033038;28;20517;-44
2023/06/08 08:32:46;;;;;;;15.03;12.43;;;;;;;19.87;84.35;101935.69;5030519;28;20506;-43
2023/06/08 08:35:14;;;;;;;15.83;13.00;;;;;;;19.98;87.96;101940.31;5033229;28;20438;-43
2023/06/08 08:37:42;;;;;;;17.83;11.80;;;;;;;19.86;87.68;101936.75;5033098;28;20976;-43
2023/06/08 08:40:11;;;;;;;17.33;12.67;;;;;;;19.88;91.01;101940.06;5032971;28;20913;-44
2023/06/08 08:42:44;;;;;;;20.60;12.90;;;;;;;19.29;93.63;101938.84;5032292;28;20997;-45
2023/06/08 08:45:17;;;;;;;13.50;12.17;;;;;;;18.96;95.59;101946.50;5033152;28;20493;-44
2023/06/08 08:47:45;;;;;;;19.80;13.00;;;;;;;18.82;100.00;101942.25;5032969;28;20483;-43
2023/06/08 08:50:16;;;;;;;17.70;12.90;;;;;;;19.23;100.00;101939.75;5032860;28;20529;-42
2023/06/08 08:52:46;;;;;;;18.60;12.57;;;;;;;19.67;98.62;101941.38;5031970;28;21063;-43
2023/06/08 08:55:13;;;;;;;19.03;11.90;;;;;;;19.80;96.90;101937.66;5032740;28;20432;-43
2023/06/08 08:58:02;;;;;;;19.47;13.40;;;;;;;20.02;91.99;101930.69;5032559;28;20458;-45
2023/06/08 09:00:33;;;;;;;20.00;13.30;;;;;;;20.16;92.46;101942.97;5032599;28;20458;-45
2023/06/08 09:03:01;;;;;;;18.60;13.20;;;;;;;20.15;94.22;101933.22;5030117;28;20471;-45
2023/06/08 09:05:29;;;;;;;19.33;13.67;;;;;;;20.17;94.80;101930.25;5032930;28;20607;-44
2023/06/08 09:07:57;;;;;;;14.70;12.93;;;;;;;20.31;90.83;101924.44;5032875;28;20484;-43
2023/06/08 09:10:27;;;;;;;16.07;12.97;;;;;;;20.15;88.41;101932.38;5032515;28;20486;-43
2023/06/08 09:12:56;;;;;;;18.43;13.10;;;;;;;19.97;92.46;101911.59;5031760;28;20467;-43
2023/06/08 09:15:27;;;;;;;18.07;12.63;;;;;;;20.37;90.89;101918.09;5032538;28;20435;-42
2023/06/08 09:17:57;;;;;;;17.20;12.57;;;;;;;20.71;90.89;101916.50;5032278;28;20474;-43
2023/06/08 09:20:29;;;;;;;18.13;12.77;;;;;;;20.98;90.06;101922.25;5032556;28;20582;-45
2023/06/08 09:22:57;;;;;;;14.97;11.30;;;;;;;20.95;91.03;101923.56;5031846;28;20468;-43
2023/06/08 09:25:37;;;;;;;17.93;12.83;;;;;;;21.30;87.61;101912.69;5031806;28;20427;-45
2023/06/08 09:28:24;;;;;;;11.87;10.67;;;;;;;21.66;90.24;101916.13;5027869;28;20456;-44
2023/06/08 09:30:55;;;;;;;15.10;12.03;;;;;;;21.72;84.54;101917.88;5032207;28;20472;-43
2023/06/08 09:33:25;;;;;;;11.57;10.37;;;;;;;22.03;84.56;101915.53;5031313;28;20562;-43
2023/06/08 09:36:08;;;;;;;18.73;12.00;;;;;;;21.86;82.13;101914.63;5032271;28;20518;-45
2023/06/08 09:38:36;;;;;;;12.50;10.73;;;;;;;21.99;81.40;101910.81;5032054;28;20581;-42
2023/06/08 09:41:15;;;;;;;16.33;11.53;;;;;;;21.97;78.99;101912.97;5032058;28;20786;-43
2023/06/08 09:43:44;;;;;;;27.83;13.20;;;;;;;21.50;79.47;101909.59;5031506;28;20517;-42
2023/06/08 09:46:15;;;;;;;15.20;11.67;;;;;;;21.77;80.21;101907.97;5032092;28;20440;-42
2023/06/08 09:48:56;;;;;;;19.37;11.47;;;;;;;21.89;78.32;101907.94;5031965;28;20459;-43
2023/06/08 09:51:25;;;;;;;16.33;13.03;;;;;;;22.39;76.04;101910.72;5031813;28;20474;-42
2023/06/08 09:53:55;;;;;;;16.30;12.10;;;;;;;22.70;73.12;101907.44;5031505;28;21012;-44
2023/06/08 09:56:25;;;;;;;16.00;12.57;;;;;;;22.57;70.15;101907.75;5031930;28;20432;-45
2023/06/08 09:58:56;;;;;;;14.20;11.43;;;;;;;22.57;70.82;101899.59;5031906;28;20546;-48
2023/06/08 10:01:30;;;;;;;14.27;12.87;;;;;;;22.60;69.93;101904.56;5031522;28;20518;-47
2023/06/08 10:04:02;;;;;;;17.43;12.17;;;;;;;22.38;70.67;101904.47;5030633;28;20607;-43
2023/06/08 10:06:34;;;;;;;17.13;11.20;;;;;;;22.67;73.38;101905.22;5031576;28;20431;-44
2023/06/08 10:09:04;;;;;;;15.70;11.30;;;;;;;22.98;72.89;101901.88;5031721;28;20439;-45
2023/06/08 10:11:34;;;;;;;14.27;12.20;;;;;;;23.09;68.53;101908.28;5031531;28;20506;-44
2023/06/08 10:14:02;;;;;;;14.93;11.13;;;;;;;23.25;70.35;101903.88;5031159;28;20459;-46
2023/06/08 10:16:31;;;;;;;18.03;10.50;;;;;;;23.38;66.01;101904.34;5031746;28;20435;-47
2023/06/08 10:19:00;;;;;;;14.50;10.47;;;;;;;23.01;68.57;101893.22;5031960;28;20983;-42
2023/06/08 10:21:30;;;;;;;12.17;10.03;;;;;;;23.14;69.14;101887.44;5031531;28;20432;-46
2023/06/08 10:23:58;;;;;;;13.13;11.37;;;;;;;23.03;69.87;101882.91;5031042;28;20479;-43
2023/06/08 10:26:28;;;;;;;13.23;10.87;;;;;;;22.82;68.17;101891.84;5031418;28;20837;-46
2023/06/08 10:29:08;;;;;;;14.00;10.20;;;;;;;23.19;69.71;101886.66;5027818;28;20578;-46
2023/06/08 10:31:49;;;;;;;14.67;11.13;;;;;;;23.40;69.02;101887.75;4991229;28;20485;-43
2023/06/08 10:34:18;;;;;;;14.57;10.60;;;;;;;23.51;69.00;101882.19;4992224;28;20437;-43
2023/06/08 10:36:46;;;;;;;15.43;10.80;;;;;;;23.65;69.38;101883.41;4992180;28;20503;-43
2023/06/08 10:39:16;;;;;;;13.00;10.20;;;;;;;23.95;68.39;101882.13;4996116;28;20433;-43
2023/06/08 10:41:46;;;;;;;16.60;11.60;;;;;;;24.01;66.81;101883.81;4996338;28;21289;-47
2023/06/08 10:44:28;;;;;;;15.37;10.20;;;;;;;24.10;64.39;101877.63;4995657;28;20437;-43
2023/06/08 10:47:00;;;;;;;13.03;9.97;;;;;;;24.30;66.20;101876.19;4996013;28;20557;-43
2023/06/08 10:49:34;;;;;;;15.40;11.80;;;;;;;24.47;62.27;101866.78;4995833;28;20852;-44
2023/06/08 10:52:04;;;;;;;18.87;11.33;;;;;;;24.22;62.91;101870.13;4995059;28;20483;-43
2023/06/08 10:54:47;;;;;;;11.80;9.67;;;;;;;24.00;62.66;101865.81;4996104;28;20473;-46
2023/06/08 10:57:35;;;;;;;11.57;9.90;;;;;;;24.23;61.46;101870.94;4995599;28;20990;-46
2023/06/08 11:00:46;;;;;;;10.00;8.93;;;;;;;24.54;62.39;101863.81;4995793;28;20508;-49
2023/06/08 11:03:16;;;;;;;15.73;10.33;;;;;;;24.78;63.83;101865.06;4993796;28;21021;-43
2023/06/08 11:05:50;;;;;;;18.63;9.30;;;;;;;25.08;63.83;101853.53;4995273;28;20429;-47
2023/06/08 11:08:18;;;;;;;10.97;9.47;;;;;;;25.32;61.01;101862.91;4995409;28;20469;-43
2023/06/08 11:10:53;;;;;;;14.60;11.10;;;;;;;25.15;60.64;101848.63;4995468;28;20528;-44
2023/06/08 11:13:20;;;;;;;11.63;9.53;;;;;;;25.30;60.07;101851.41;4994644;28;20460;-46
2023/06/08 11:15:48;;;;;;;11.60;10.23;;;;;;;25.37;57.72;101854.72;4995315;28;20438;-47